sensor_id;sensor_type;location;lat;lon;timestamp;pressure;altitude;pressure_sealevel;temperature;humidity
57600;BME280;43426;43.594;24.334;2023-05-25T00:01:57;101004.97;;;16.54;100.00
57600;BME280;43426;43.594;24.334;2023-05-25T00:04:23;101001.09;;;16.35;100.00
57600;BME280;43426;43.594;24.334;2023-05-25T00:06:52;100981.34;;;16.20;100.00
57600;BME280;43426;43.594;24.334;2023-05-25T00:09:17;101004.91;;;16.34;100.00
57600;BME280;43426;43.594;24.334;2023-05-25T00:11:43;101000.69;;;16.31;100.00
57600;BME280;43426;43.594;24.334;2023-05-25T00:14:08;100995.25;;;16.31;100.00
57600;BME280;43426;43.594;24.334;2023-05-25T00:16:34;101003.41;;;16.31;100.00
57600;BME280;43426;43.594;24.334;2023-05-25T00:19:05;101012.78;;;16.22;100.00
57600;BME280;43426;43.594;24.334;2023-05-25T00:21:31;101014.00;;;16.13;100.00
57600;BME280;43426;43.594;24.334;2023-05-25T00:24:03;101005.81;;;16.06;100.00
57600;BME280;43426;43.594;24.334;2023-05-25T00:26:28;100982.75;;;15.74;100.00
57600;BME280;43426;43.594;24.334;2023-05-25T00:28:54;101023.59;;;16.02;100.00
57600;BME280;43426;43.594;24.334;2023-05-25T00:31:20;101013.88;;;15.93;100.00
57600;BME280;43426;43.594;24.334;2023-05-25T00:33:45;101022.47;;;15.90;100.00
57600;BME280;43426;43.594;24.334;2023-05-25T00:36:11;101010.91;;;15.88;100.00
57600;BME280;43426;43.594;24.334;2023-05-25T00:38:36;101014.34;;;16.03;100.00
57600;BME280;43426;43.594;24.334;2023-05-25T00:41:01;101013.31;;;16.04;100.00
57600;BME280;43426;43.594;24.334;2023-05-25T00:43:27;101021.06;;;16.07;100.00
57600;BME280;43426;43.594;24.334;2023-05-25T00:45:52;100996.06;;;15.90;100.00
57600;BME280;43426;43.594;24.334;2023-05-25T00:48:18;101020.19;;;16.00;100.00
57600;BME280;43426;43.594;24.334;2023-05-25T00:50:43;101013.84;;;15.86;100.00
57600;BME280;43426;43.594;24.334;2023-05-25T00:53:11;100975.97;;;15.63;100.00
57600;BME280;43426;43.594;24.334;2023-05-25T00:55:44;100997.50;;;15.86;100.00
57600;BME280;43426;43.594;24.334;2023-05-25T00:58:17;101009.28;;;15.93;100.00
57600;BME280;43426;43.594;24.334;2023-05-25T01:00:45;100988.94;;;15.82;100.00
57600;BME280;43426;43.594;24.334;2023-05-25T01:03:14;101013.47;;;15.96;100.00
57600;BME280;43426;43.594;24.334;2023-05-25T01:05:44;101012.59;;;15.89;100.00
57600;BME280;43426;43.594;24.334;2023-05-25T01:08:13;101013.88;;;15.93;100.00
57600;BME280;43426;43.594;24.334;2023-05-25T01:10:41;101017.63;;;15.92;100.00
57600;BME280;43426;43.594;24.334;2023-05-25T01:13:08;101003.47;;;15.75;100.00
57600;BME280;43426;43.594;24.334;2023-05-25T01:15:37;101025.56;;;15.87;100.00
57600;BME280;43426;43.594;24.334;2023-05-25T01:18:03;101031.09;;;16.00;100.00
57600;BME280;43426;43.594;24.334;2023-05-25T01:20:29;100995.13;;;15.76;100.00
57600;BME280;43426;43.594;24.334;2023-05-25T01:22:56;101029.59;;;15.97;100.00
57600;BME280;43426;43.594;24.334;2023-05-25T01:25:44;101002.25;;;15.77;100.00
57600;BME280;43426;43.594;24.334;2023-05-25T01:28:20;101018.19;;;15.80;100.00
57600;BME280;43426;43.594;24.334;2023-05-25T01:30:48;101015.16;;;15.69;100.00
57600;BME280;43426;43.594;24.334;2023-05-25T01:33:16;101013.47;;;15.68;100.00
57600;BME280;43426;43.594;24.334;2023-05-25T01:35:43;101005.28;;;15.61;100.00
57600;BME280;43426;43.594;24.334;2023-05-25T01:38:09;100984.94;;;15.57;100.00
57600;BME280;43426;43.594;24.334;2023-05-25T01:40:34;101016.00;;;15.69;100.00
57600;BME280;43426;43.594;24.334;2023-05-25T01:43:00;101016.19;;;15.68;100.00
57600;BME280;43426;43.594;24.334;2023-05-25T01:45:25;101020.00;;;15.73;100.00
57600;BME280;43426;43.594;24.334;2023-05-25T01:50:28;101016.50;;;15.79;100.00
57600;BME280;43426;43.594;24.334;2023-05-25T01:53:18;101017.53;;;15.78;100.00
57600;BME280;43426;43.594;24.334;2023-05-25T01:58:17;101023.31;;;15.69;100.00
57600;BME280;43426;43.594;24.334;2023-05-25T02:00:45;101006.81;;;15.70;100.00
57600;BME280;43426;43.594;24.334;2023-05-25T02:03:13;101014.44;;;15.81;100.00
57600;BME280;43426;43.594;24.334;2023-05-25T02:05:40;101035.19;;;15.82;100.00
57600;BME280;43426;43.594;24.334;2023-05-25T02:08:05;101024.31;;;15.82;100.00
57600;BME280;43426;43.594;24.334;2023-05-25T02:10:31;101032.69;;;15.88;100.00
57600;BME280;43426;43.594;24.334;2023-05-25T02:12:56;101027.56;;;15.78;100.00
57600;BME280;43426;43.594;24.334;2023-05-25T02:15:21;101033.50;;;15.81;100.00
57600;BME280;43426;43.594;24.334;2023-05-25T02:17:47;101034.53;;;15.80;100.00
57600;BME280;43426;43.594;24.334;2023-05-25T02:20:12;101033.88;;;15.78;100.00
57600;BME280;43426;43.594;24.334;2023-05-25T02:22:38;101027.69;;;15.91;100.00
57600;BME280;43426;43.594;24.334;2023-05-25T02:25:03;101041.72;;;15.88;100.00
57600;BME280;43426;43.594;24.334;2023-05-25T02:27:29;101034.78;;;15.86;100.00
57600;BME280;43426;43.594;24.334;2023-05-25T02:29:55;101035.25;;;15.96;100.00
57600;BME280;43426;43.594;24.334;2023-05-25T02:32:20;101038.59;;;15.91;100.00
57600;BME280;43426;43.594;24.334;2023-05-25T02:34:46;101058.03;;;15.88;100.00
57600;BME280;43426;43.594;24.334;2023-05-25T02:37:12;101028.75;;;15.69;100.00
57600;BME280;43426;43.594;24.334;2023-05-25T02:39:37;101057.78;;;15.83;100.00
57600;BME280;43426;43.594;24.334;2023-05-25T02:42:03;101043.06;;;15.77;100.00
57600;BME280;43426;43.594;24.334;2023-05-25T02:44:29;101055.63;;;15.78;100.00
57600;BME280;43426;43.594;24.334;2023-05-25T02:46:55;101033.56;;;15.66;100.00
57600;BME280;43426;43.594;24.334;2023-05-25T02:49:20;101066.53;;;15.78;100.00
57600;BME280;43426;43.594;24.334;2023-05-25T02:51:45;101081.25;;;15.84;100.00
57600;BME280;43426;43.594;24.334;2023-05-25T02:54:11;101081.47;;;15.89;100.00
57600;BME280;43426;43.594;24.334;2023-05-25T02:56:36;101052.13;;;15.63;100.00
57600;BME280;43426;43.594;24.334;2023-05-25T02:59:01;101075.44;;;15.72;100.00
57600;BME280;43426;43.594;24.334;2023-05-25T03:01:27;101010.59;;;15.47;100.00
57600;BME280;43426;43.594;24.334;2023-05-25T03:03:54;101071.19;;;15.85;100.00
57600;BME280;43426;43.594;24.334;2023-05-25T03:06:20;101080.59;;;15.82;100.00
57600;BME280;43426;43.594;24.334;2023-05-25T03:08:47;101065.22;;;15.74;100.00
57600;BME280;43426;43.594;24.334;2023-05-25T03:11:13;101095.06;;;15.82;100.00
57600;BME280;43426;43.594;24.334;2023-05-25T03:13:38;101083.88;;;15.77;100.00
57600;BME280;43426;43.594;24.334;2023-05-25T03:16:03;101090.44;;;15.83;100.00
57600;BME280;43426;43.594;24.334;2023-05-25T03:18:29;101060.16;;;15.71;100.00
57600;BME280;43426;43.594;24.334;2023-05-25T03:20:54;101097.06;;;16.02;100.00
57600;BME280;43426;43.594;24.334;2023-05-25T03:23:19;101050.75;;;15.74;100.00
57600;BME280;43426;43.594;24.334;2023-05-25T03:25:45;101094.50;;;15.94;100.00
57600;BME280;43426;43.594;24.334;2023-05-25T03:28:11;101089.69;;;15.96;100.00
57600;BME280;43426;43.594;24.334;2023-05-25T03:30:36;101093.44;;;15.95;100.00
57600;BME280;43426;43.594;24.334;2023-05-25T03:33:01;101077.91;;;15.89;100.00
57600;BME280;43426;43.594;24.334;2023-05-25T03:35:27;101092.00;;;15.99;100.00
57600;BME280;43426;43.594;24.334;2023-05-25T03:37:52;101058.63;;;15.83;100.00
57600;BME280;43426;43.594;24.334;2023-05-25T03:40:17;101091.19;;;15.98;100.00
57600;BME280;43426;43.594;24.334;2023-05-25T03:42:43;101097.84;;;15.96;100.00
57600;BME280;43426;43.594;24.334;2023-05-25T03:45:08;101097.66;;;15.97;100.00
57600;BME280;43426;43.594;24.334;2023-05-25T03:47:35;101067.09;;;15.74;100.00
57600;BME280;43426;43.594;24.334;2023-05-25T03:50:02;101098.53;;;16.05;100.00
57600;BME280;43426;43.594;24.334;2023-05-25T03:52:28;101082.91;;;15.85;100.00
57600;BME280;43426;43.594;24.334;2023-05-25T03:54:53;101124.44;;;15.94;100.00
57600;BME280;43426;43.594;24.334;2023-05-25T03:57:18;101124.44;;;15.94;100.00
57600;BME280;43426;43.594;24.334;2023-05-25T03:59:44;101125.13;;;16.03;100.00
57600;BME280;43426;43.594;24.334;2023-05-25T04:02:09;101111.72;;;16.01;100.00
57600;BME280;43426;43.594;24.334;2023-05-25T04:04:35;101120.50;;;16.03;100.00
57600;BME280;43426;43.594;24.334;2023-05-25T04:07:00;101097.16;;;15.87;100.00
57600;BME280;43426;43.594;24.334;2023-05-25T04:09:25;101121.56;;;16.02;100.00
57600;BME280;43426;43.594;24.334;2023-05-25T04:11:51;101072.41;;;15.82;100.00
57600;BME280;43426;43.594;24.334;2023-05-25T04:14:16;101123.34;;;16.16;100.00
57600;BME280;43426;43.594;24.334;2023-05-25T04:16:44;101102.88;;;15.99;100.00
57600;BME280;43426;43.594;24.334;2023-05-25T04:19:10;101128.63;;;16.25;100.00
57600;BME280;43426;43.594;24.334;2023-05-25T04:21:35;101117.06;;;16.16;100.00
57600;BME280;43426;43.594;24.334;2023-05-25T04:24:00;101128.84;;;16.23;100.00
57600;BME280;43426;43.594;24.334;2023-05-25T04:26:26;101119.06;;;16.36;100.00
57600;BME280;43426;43.594;24.334;2023-05-25T04:28:51;101122.81;;;16.34;100.00
57600;BME280;43426;43.594;24.334;2023-05-25T04:31:20;101110.94;;;16.42;100.00
57600;BME280;43426;43.594;24.334;2023-05-25T04:33:46;101072.38;;;16.04;100.00
57600;BME280;43426;43.594;24.334;2023-05-25T04:36:11;101125.44;;;16.21;100.00
57600;BME280;43426;43.594;24.334;2023-05-25T04:38:38;101120.31;;;16.05;100.00
57600;BME280;43426;43.594;24.334;2023-05-25T04:41:04;101123.03;;;16.05;100.00
57600;BME280;43426;43.594;24.334;2023-05-25T04:43:30;101113.25;;;16.10;100.00
57600;BME280;43426;43.594;24.334;2023-05-25T04:45:56;101117.88;;;16.16;100.00
57600;BME280;43426;43.594;24.334;2023-05-25T04:48:22;101078.03;;;16.02;100.00
57600;BME280;43426;43.594;24.334;2023-05-25T04:50:49;101093.84;;;16.20;100.00
57600;BME280;43426;43.594;24.334;2023-05-25T04:53:14;101116.13;;;16.37;100.00
57600;BME280;43426;43.594;24.334;2023-05-25T04:55:39;101088.91;;;16.37;100.00
57600;BME280;43426;43.594;24.334;2023-05-25T04:58:05;101118.63;;;16.67;100.00
57600;BME280;43426;43.594;24.334;2023-05-25T05:00:31;101090.91;;;16.57;100.00
57600;BME280;43426;43.594;24.334;2023-05-25T05:02:58;101110.63;;;16.65;100.00
57600;BME280;43426;43.594;24.334;2023-05-25T05:05:24;101108.00;;;16.85;100.00
57600;BME280;43426;43.594;24.334;2023-05-25T05:07:50;101122.09;;;16.96;100.00
57600;BME280;43426;43.594;24.334;2023-05-25T05:10:16;101093.53;;;16.85;100.00
57600;BME280;43426;43.594;24.334;2023-05-25T05:12:42;101101.13;;;16.90;100.00
57600;BME280;43426;43.594;24.334;2023-05-25T05:15:07;101130.16;;;17.17;100.00
57600;BME280;43426;43.594;24.334;2023-05-25T05:17:32;101133.13;;;17.36;100.00
57600;BME280;43426;43.594;24.334;2023-05-25T05:19:58;101099.94;;;17.19;100.00
57600;BME280;43426;43.594;24.334;2023-05-25T05:22:23;101135.22;;;17.34;100.00
57600;BME280;43426;43.594;24.334;2023-05-25T05:24:49;101121.81;;;17.46;100.00
57600;BME280;43426;43.594;24.334;2023-05-25T05:27:15;101133.19;;;17.63;100.00
57600;BME280;43426;43.594;24.334;2023-05-25T05:29:40;101137.56;;;17.64;100.00
57600;BME280;43426;43.594;24.334;2023-05-25T05:32:06;101116.16;;;17.54;100.00
57600;BME280;43426;43.594;24.334;2023-05-25T05:34:32;101131.53;;;17.75;100.00
57600;BME280;43426;43.594;24.334;2023-05-25T05:36:58;101136.34;;;17.86;100.00
57600;BME280;43426;43.594;24.334;2023-05-25T05:39:26;101138.69;;;18.10;99.22
57600;BME280;43426;43.594;24.334;2023-05-25T05:41:52;101150.63;;;18.29;98.86
57600;BME280;43426;43.594;24.334;2023-05-25T05:44:19;101130.06;;;18.19;98.37
57600;BME280;43426;43.594;24.334;2023-05-25T05:46:45;101157.78;;;18.36;97.84
57600;BME280;43426;43.594;24.334;2023-05-25T05:49:10;101168.47;;;18.51;97.73
57600;BME280;43426;43.594;24.334;2023-05-25T05:51:36;101126.22;;;18.47;95.25
57600;BME280;43426;43.594;24.334;2023-05-25T05:54:02;101145.91;;;18.76;93.32
57600;BME280;43426;43.594;24.334;2023-05-25T05:56:27;101142.91;;;18.91;92.23
57600;BME280;43426;43.594;24.334;2023-05-25T05:58:53;101188.03;;;19.20;92.25
57600;BME280;43426;43.594;24.334;2023-05-25T06:01:18;101173.72;;;19.18;92.14
57600;BME280;43426;43.594;24.334;2023-05-25T06:03:44;101179.69;;;19.47;88.01
57600;BME280;43426;43.594;24.334;2023-05-25T06:06:10;101192.28;;;19.55;88.68
57600;BME280;43426;43.594;24.334;2023-05-25T06:08:35;101187.00;;;19.53;89.41
57600;BME280;43426;43.594;24.334;2023-05-25T06:11:01;101165.59;;;19.44;87.92
57600;BME280;43426;43.594;24.334;2023-05-25T06:13:26;101183.63;;;19.58;88.25
57600;BME280;43426;43.594;24.334;2023-05-25T06:15:52;101165.16;;;19.47;88.27
57600;BME280;43426;43.594;24.334;2023-05-25T06:18:17;101172.72;;;19.51;87.98
57600;BME280;43426;43.594;24.334;2023-05-25T06:20:43;101154.59;;;19.50;86.84
57600;BME280;43426;43.594;24.334;2023-05-25T06:23:08;101166.50;;;19.69;85.82
57600;BME280;43426;43.594;24.334;2023-05-25T06:25:35;101121.19;;;19.42;86.59
57600;BME280;43426;43.594;24.334;2023-05-25T06:28:01;101164.84;;;19.62;88.47
57600;BME280;43426;43.594;24.334;2023-05-25T06:30:27;101196.56;;;19.76;89.16
57600;BME280;43426;43.594;24.334;2023-05-25T06:32:52;101177.75;;;19.86;85.28
57600;BME280;43426;43.594;24.334;2023-05-25T06:35:17;101190.69;;;20.04;85.47
57600;BME280;43426;43.594;24.334;2023-05-25T06:37:46;101208.81;;;20.05;86.76
57600;BME280;43426;43.594;24.334;2023-05-25T06:40:13;101186.94;;;19.99;86.02
57600;BME280;43426;43.594;24.334;2023-05-25T06:42:39;101194.34;;;19.98;85.34
57600;BME280;43426;43.594;24.334;2023-05-25T06:45:06;101204.44;;;19.98;85.30
57600;BME280;43426;43.594;24.334;2023-05-25T06:47:31;101219.25;;;20.15;84.68
57600;BME280;43426;43.594;24.334;2023-05-25T06:49:57;101196.44;;;19.96;87.24
57600;BME280;43426;43.594;24.334;2023-05-25T06:52:22;101209.41;;;20.07;86.44
57600;BME280;43426;43.594;24.334;2023-05-25T06:54:48;101169.81;;;20.03;87.06
57600;BME280;43426;43.594;24.334;2023-05-25T06:57:13;101206.91;;;20.31;86.31
57600;BME280;43426;43.594;24.334;2023-05-25T06:59:39;101223.00;;;20.46;86.26
57600;BME280;43426;43.594;24.334;2023-05-25T07:02:05;101197.72;;;20.44;85.63
57600;BME280;43426;43.594;24.334;2023-05-25T07:04:30;101195.78;;;20.70;83.38
57600;BME280;43426;43.594;24.334;2023-05-25T07:06:57;101198.53;;;20.70;85.37
57600;BME280;43426;43.594;24.334;2023-05-25T07:09:22;101143.38;;;20.41;86.02
57600;BME280;43426;43.594;24.334;2023-05-25T07:11:48;101156.09;;;20.72;84.35
57600;BME280;43426;43.594;24.334;2023-05-25T07:14:13;101190.84;;;20.97;82.89
57600;BME280;43426;43.594;24.334;2023-05-25T07:16:38;101213.47;;;21.30;81.25
57600;BME280;43426;43.594;24.334;2023-05-25T07:19:04;101204.91;;;21.38;81.46
57600;BME280;43426;43.594;24.334;2023-05-25T07:21:32;101205.75;;;21.38;83.13
57600;BME280;43426;43.594;24.334;2023-05-25T07:23:58;101186.59;;;21.50;84.97
57600;BME280;43426;43.594;24.334;2023-05-25T07:26:24;101188.75;;;21.90;80.75
57600;BME280;43426;43.594;24.334;2023-05-25T07:28:53;101202.41;;;22.33;80.97
57600;BME280;43426;43.594;24.334;2023-05-25T07:31:18;101191.56;;;22.50;79.89
57600;BME280;43426;43.594;24.334;2023-05-25T07:33:44;101206.47;;;22.89;76.91
57600;BME280;43426;43.594;24.334;2023-05-25T07:36:09;101179.66;;;22.96;77.41
57600;BME280;43426;43.594;24.334;2023-05-25T07:38:35;101207.84;;;23.27;75.91
57600;BME280;43426;43.594;24.334;2023-05-25T07:41:00;101187.44;;;23.40;75.39
57600;BME280;43426;43.594;24.334;2023-05-25T07:43:26;101202.78;;;23.65;73.07
57600;BME280;43426;43.594;24.334;2023-05-25T07:45:52;101207.50;;;23.82;71.37
57600;BME280;43426;43.594;24.334;2023-05-25T07:48:17;101204.09;;;23.91;74.28
57600;BME280;43426;43.594;24.334;2023-05-25T07:50:43;101205.44;;;24.40;72.68
57600;BME280;43426;43.594;24.334;2023-05-25T07:53:09;101187.22;;;24.78;69.70
57600;BME280;43426;43.594;24.334;2023-05-25T07:55:34;101212.66;;;25.46;62.79
57600;BME280;43426;43.594;24.334;2023-05-25T07:58:00;101214.84;;;25.72;63.87
57600;BME280;43426;43.594;24.334;2023-05-25T08:00:25;101214.59;;;25.73;63.47
57600;BME280;43426;43.594;24.334;2023-05-25T08:02:51;101200.91;;;25.56;62.50
57600;BME280;43426;43.594;24.334;2023-05-25T08:05:16;101205.72;;;25.44;63.26
57600;BME280;43426;43.594;24.334;2023-05-25T08:07:42;101205.66;;;25.39;63.86
57600;BME280;43426;43.594;24.334;2023-05-25T08:10:08;101218.03;;;25.58;64.97
57600;BME280;43426;43.594;24.334;2023-05-25T08:12:33;101179.88;;;25.55;63.73
57600;BME280;43426;43.594;24.334;2023-05-25T08:14:59;101216.81;;;25.71;63.13
57600;BME280;43426;43.594;24.334;2023-05-25T08:17:24;101191.06;;;25.71;59.72
57600;BME280;43426;43.594;24.334;2023-05-25T08:19:49;101225.44;;;25.53;61.04
57600;BME280;43426;43.594;24.334;2023-05-25T08:22:15;101204.78;;;25.33;62.22
57600;BME280;43426;43.594;24.334;2023-05-25T08:24:40;101184.59;;;25.60;61.35
57600;BME280;43426;43.594;24.334;2023-05-25T08:27:06;101193.03;;;26.03;58.12
57600;BME280;43426;43.594;24.334;2023-05-25T08:29:31;101211.34;;;26.46;57.47
57600;BME280;43426;43.594;24.334;2023-05-25T08:31:57;101208.25;;;26.80;56.18
57600;BME280;43426;43.594;24.334;2023-05-25T08:34:22;101210.75;;;26.77;57.15
57600;BME280;43426;43.594;24.334;2023-05-25T08:36:48;101211.66;;;26.98;56.97
57600;BME280;43426;43.594;24.334;2023-05-25T08:39:13;101203.16;;;27.20;57.40
57600;BME280;43426;43.594;24.334;2023-05-25T08:41:42;101211.06;;;27.75;54.77
57600;BME280;43426;43.594;24.334;2023-05-25T08:44:08;101201.09;;;27.84;55.61
57600;BME280;43426;43.594;24.334;2023-05-25T08:46:33;101200.81;;;27.91;54.97
57600;BME280;43426;43.594;24.334;2023-05-25T08:49:12;101187.25;;;27.74;53.05
57600;BME280;43426;43.594;24.334;2023-05-25T08:54:19;101205.56;;;27.90;53.79
57600;BME280;43426;43.594;24.334;2023-05-25T08:56:51;101197.22;;;27.85;51.14
57600;BME280;43426;43.594;24.334;2023-05-25T09:01:45;101203.31;;;28.49;50.25
57600;BME280;43426;43.594;24.334;2023-05-25T09:04:12;101189.63;;;28.83;50.66
57600;BME280;43426;43.594;24.334;2023-05-25T09:06:43;101196.81;;;28.95;47.50
57600;BME280;43426;43.594;24.334;2023-05-25T09:09:10;101200.34;;;29.11;47.48
57600;BME280;43426;43.594;24.334;2023-05-25T09:11:36;101207.00;;;29.15;48.78
57600;BME280;43426;43.594;24.334;2023-05-25T09:14:03;101202.56;;;29.09;43.41
57600;BME280;43426;43.594;24.334;2023-05-25T09:16:30;101213.16;;;29.07;45.91
57600;BME280;43426;43.594;24.334;2023-05-25T09:18:57;101187.28;;;29.16;48.93
57600;BME280;43426;43.594;24.334;2023-05-25T09:21:22;101182.84;;;29.60;49.17
57600;BME280;43426;43.594;24.334;2023-05-25T09:23:48;101200.69;;;30.28;45.38
57600;BME280;43426;43.594;24.334;2023-05-25T09:26:14;101163.50;;;30.14;44.44
57600;BME280;43426;43.594;24.334;2023-05-25T09:28:46;101203.03;;;30.16;44.08
57600;BME280;43426;43.594;24.334;2023-05-25T09:31:15;101185.94;;;30.28;43.05
57600;BME280;43426;43.594;24.334;2023-05-25T09:33:41;101179.25;;;30.29;45.24
57600;BME280;43426;43.594;24.334;2023-05-25T09:36:08;101184.94;;;30.48;43.52
57600;BME280;43426;43.594;24.334;2023-05-25T09:38:35;101192.03;;;30.30;42.91
57600;BME280;43426;43.594;24.334;2023-05-25T09:41:00;101161.00;;;29.88;43.78
57600;BME280;43426;43.594;24.334;2023-05-25T09:43:26;101184.94;;;29.79;45.93
57600;BME280;43426;43.594;24.334;2023-05-25T09:45:52;101173.59;;;29.70;43.15
57600;BME280;43426;43.594;24.334;2023-05-25T09:48:18;101170.34;;;29.97;42.65
57600;BME280;43426;43.594;24.334;2023-05-25T09:50:43;101176.78;;;29.93;41.60
57600;BME280;43426;43.594;24.334;2023-05-25T09:53:09;101181.09;;;30.09;42.22
57600;BME280;43426;43.594;24.334;2023-05-25T09:55:36;101170.16;;;30.47;43.37
57600;BME280;43426;43.594;24.334;2023-05-25T09:58:01;101166.72;;;30.80;44.77
57600;BME280;43426;43.594;24.334;2023-05-25T10:00:27;101175.16;;;31.18;42.74
57600;BME280;43426;43.594;24.334;2023-05-25T10:02:53;101163.25;;;31.12;40.43
57600;BME280;43426;43.594;24.334;2023-05-25T10:05:18;101161.00;;;30.90;41.10
57600;BME280;43426;43.594;24.334;2023-05-25T10:07:45;101174.41;;;30.39;44.08
57600;BME280;43426;43.594;24.334;2023-05-25T10:10:14;101158.25;;;29.78;42.98
57600;BME280;43426;43.594;24.334;2023-05-25T10:12:41;101148.34;;;29.21;44.51
57600;BME280;43426;43.594;24.334;2023-05-25T10:15:08;101140.44;;;28.89;43.87
57600;BME280;43426;43.594;24.334;2023-05-25T10:17:49;101145.53;;;28.66;44.50
57600;BME280;43426;43.594;24.334;2023-05-25T10:20:16;101149.13;;;28.72;46.63
57600;BME280;43426;43.594;24.334;2023-05-25T10:23:07;101149.97;;;29.22;45.12
57600;BME280;43426;43.594;24.334;2023-05-25T10:25:39;101135.81;;;29.64;44.84
57600;BME280;43426;43.594;24.334;2023-05-25T10:28:29;101144.34;;;30.12;43.33
57600;BME280;43426;43.594;24.334;2023-05-25T10:30:58;101131.16;;;30.23;41.93
57600;BME280;43426;43.594;24.334;2023-05-25T10:33:24;101150.63;;;30.77;43.61
57600;BME280;43426;43.594;24.334;2023-05-25T10:35:50;101145.03;;;31.20;39.92
57600;BME280;43426;43.594;24.334;2023-05-25T10:38:18;101139.22;;;31.35;39.72
57600;BME280;43426;43.594;24.334;2023-05-25T10:40:45;101135.47;;;31.64;37.85
57600;BME280;43426;43.594;24.334;2023-05-25T10:43:17;101108.06;;;31.66;38.46
57600;BME280;43426;43.594;24.334;2023-05-25T10:45:43;101111.66;;;32.00;37.33
57600;BME280;43426;43.594;24.334;2023-05-25T10:48:09;101113.38;;;32.15;38.89
57600;BME280;43426;43.594;24.334;2023-05-25T10:50:35;101107.06;;;32.23;36.52
57600;BME280;43426;43.594;24.334;2023-05-25T10:53:04;101106.97;;;32.56;34.84
57600;BME280;43426;43.594;24.334;2023-05-25T10:55:49;101104.88;;;32.89;36.15
57600;BME280;43426;43.594;24.334;2023-05-25T10:58:26;101102.13;;;33.26;35.49
57600;BME280;43426;43.594;24.334;2023-05-25T11:01:11;101099.28;;;33.40;32.77
57600;BME280;43426;43.594;24.334;2023-05-25T11:06:20;101059.34;;;32.89;35.80
57600;BME280;43426;43.594;24.334;2023-05-25T11:08:59;101074.47;;;32.74;34.79
57600;BME280;43426;43.594;24.334;2023-05-25T11:14:30;101078.03;;;33.02;32.63
57600;BME280;43426;43.594;24.334;2023-05-25T11:17:12;101054.91;;;33.10;32.81
57600;BME280;43426;43.594;24.334;2023-05-25T11:19:46;101077.38;;;33.19;34.57
57600;BME280;43426;43.594;24.334;2023-05-25T11:24:39;101057.59;;;33.16;33.45
57600;BME280;43426;43.594;24.334;2023-05-25T11:27:05;101076.88;;;33.63;34.68
57600;BME280;43426;43.594;24.334;2023-05-25T11:29:32;101071.91;;;33.82;32.56
57600;BME280;43426;43.594;24.334;2023-05-25T11:32:00;101068.13;;;33.87;32.64
57600;BME280;43426;43.594;24.334;2023-05-25T11:34:27;101080.22;;;33.73;33.30
57600;BME280;43426;43.594;24.334;2023-05-25T11:36:57;101071.41;;;32.98;33.85
57600;BME280;43426;43.594;24.334;2023-05-25T11:39:26;101054.34;;;31.61;36.12
57600;BME280;43426;43.594;24.334;2023-05-25T11:41:57;101065.06;;;29.75;39.11
57600;BME280;43426;43.594;24.334;2023-05-25T11:44:30;101061.91;;;29.18;41.93
57600;BME280;43426;43.594;24.334;2023-05-25T11:46:56;101048.50;;;29.65;40.28
57600;BME280;43426;43.594;24.334;2023-05-25T11:49:26;101059.22;;;29.47;39.70
57600;BME280;43426;43.594;24.334;2023-05-25T11:51:55;101047.84;;;29.44;39.23
57600;BME280;43426;43.594;24.334;2023-05-25T11:54:22;101054.09;;;29.20;39.71
57600;BME280;43426;43.594;24.334;2023-05-25T11:56:48;101054.59;;;29.32;41.23
57600;BME280;43426;43.594;24.334;2023-05-25T11:59:14;101060.28;;;29.86;39.19
57600;BME280;43426;43.594;24.334;2023-05-25T12:01:39;101055.63;;;30.05;39.88
57600;BME280;43426;43.594;24.334;2023-05-25T12:04:09;101028.00;;;30.33;39.88
57600;BME280;43426;43.594;24.334;2023-05-25T12:06:35;101041.34;;;30.80;38.50
57600;BME280;43426;43.594;24.334;2023-05-25T12:09:02;101043.53;;;30.83;37.28
57600;BME280;43426;43.594;24.334;2023-05-25T12:11:35;101047.16;;;31.02;38.37
57600;BME280;43426;43.594;24.334;2023-05-25T12:14:05;101021.47;;;31.05;37.22
57600;BME280;43426;43.594;24.334;2023-05-25T12:16:34;101038.09;;;31.30;36.93
57600;BME280;43426;43.594;24.334;2023-05-25T12:19:03;101035.16;;;31.54;36.73
57600;BME280;43426;43.594;24.334;2023-05-25T12:21:29;101031.94;;;31.66;37.45
57600;BME280;43426;43.594;24.334;2023-05-25T12:23:56;101031.41;;;31.78;35.08
57600;BME280;43426;43.594;24.334;2023-05-25T12:26:21;101029.53;;;31.59;36.59
57600;BME280;43426;43.594;24.334;2023-05-25T12:31:36;101019.84;;;31.70;35.49
57600;BME280;43426;43.594;24.334;2023-05-25T12:34:07;101019.66;;;31.81;34.04
57600;BME280;43426;43.594;24.334;2023-05-25T12:36:50;100996.06;;;31.73;36.09
57600;BME280;43426;43.594;24.334;2023-05-25T12:42:01;100997.44;;;31.89;34.31
57600;BME280;43426;43.594;24.334;2023-05-25T12:46:55;100994.13;;;32.01;33.99
57600;BME280;43426;43.594;24.334;2023-05-25T12:49:32;100993.53;;;32.18;33.89
57600;BME280;43426;43.594;24.334;2023-05-25T12:52:00;100990.00;;;32.13;35.43
57600;BME280;43426;43.594;24.334;2023-05-25T12:57:06;101008.56;;;32.73;34.58
57600;BME280;43426;43.594;24.334;2023-05-25T12:59:35;100987.00;;;32.23;34.06
57600;BME280;43426;43.594;24.334;2023-05-25T13:02:02;100955.47;;;31.81;35.29
57600;BME280;43426;43.594;24.334;2023-05-25T13:04:29;101001.66;;;31.87;35.60